Oconomowoc, Wisconsin
Current Conditions -  °F | °C
As of 11:15 PM on Friday 28 Nov 2014 (Local Time) from KRYV Reporting Station
Haze Haze  
Wind Chill: 29°   Ceiling: 12000
Heat Index: 29°   Visibility: 5mi
Dew Point: 28°   Wind: 3mph
Humidity: 99%   Direction: 100°E
Pressure: 29.83"   Gusts: NA
Location:  43.11°N, 88.5°W
Report Text: KRYV 290515Z AUTO 10003KT 5SM BR BKN120 M02/M02 A2983 RMK AO2 T10181020
Loading
Personal Weather Stations






























Interactive Weather Map New forecast layout! Learn more

10-Day Weather Forecast

Advertisements
Track Severe Weather on mobile